Time;durP1;ratioP1;P1;durP2;ratioP2;P2;SDS_P1;SDS_P2;PMS_P1;PMS_P2;Temp;Humidity;BMP_temperature;BMP_pressure;BME280_temperature;BME280_humidity;BME280_pressure;Samples;Min_cycle;Max_cycle;Signal;HPM_P1;HPM_P2
2022/12/21 00:01:14;;;;;;;2.35;1.95;;;4.60;99.90;;;;;;5044428;28;20456;-70
2022/12/21 00:03:43;;;;;;;7.35;1.40;;;4.70;99.90;;;;;;5043673;28;20437;-70
2022/12/21 00:06:11;;;;;;;1.20;1.20;;;4.90;99.90;;;;;;5040322;28;20840;-70
2022/12/21 00:08:44;;;;;;;1.40;1.30;;;5.00;99.90;;;;;;5045308;28;20438;-70
2022/12/21 00:11:12;;;;;;;2.55;1.15;;;5.00;99.90;;;;;;5029242;28;20443;-70
2022/12/21 00:13:42;;;;;;;1.65;1.55;;;5.10;99.90;;;;;;5052800;28;20984;-72
2022/12/21 00:16:11;;;;;;;1.02;1.02;;;5.20;99.90;;;;;;5047332;28;20430;-72
2022/12/21 00:18:42;;;;;;;2.13;1.40;;;5.20;99.90;;;;;;5044825;28;20425;-72
2022/12/21 00:21:14;;;;;;;1.80;1.55;;;5.20;99.90;;;;;;5043433;28;20489;-72
2022/12/21 00:23:42;;;;;;;2.70;1.75;;;5.20;99.90;;;;;;5054768;28;20420;-72
2022/12/21 00:26:10;;;;;;;2.70;1.17;;;5.20;99.90;;;;;;5039226;28;20453;-72
2022/12/21 00:28:37;;;;;;;1.80;1.70;;;5.30;99.90;;;;;;5041035;28;21212;-72
2022/12/21 00:31:13;;;;;;;1.75;1.00;;;5.30;99.90;;;;;;5042962;28;20433;-72
2022/12/21 00:33:44;;;;;;;1.10;1.00;;;5.30;99.90;;;;;;5038286;28;20566;-72
2022/12/21 00:36:13;;;;;;;3.40;1.52;;;5.30;99.90;;;;;;5047320;28;20423;-73
2022/12/21 00:38:40;;;;;;;1.35;1.27;;;5.30;99.90;;;;;;5046717;28;20472;-73
2022/12/21 00:41:11;;;;;;;1.42;1.40;;;5.30;99.90;;;;;;5039480;28;20429;-73
2022/12/21 00:43:39;;;;;;;1.45;1.27;;;5.40;99.90;;;;;;5052383;28;20431;-73
2022/12/21 00:46:06;;;;;;;1.30;1.20;;;5.30;99.90;;;;;;5044003;28;20437;-72
2022/12/21 00:48:35;;;;;;;2.55;1.50;;;5.40;99.90;;;;;;5044669;28;20464;-72
2022/12/21 00:51:06;;;;;;;2.45;1.13;;;5.40;99.90;;;;;;5045750;28;20433;-73
2022/12/21 00:53:34;;;;;;;0.90;0.85;;;5.40;99.90;;;;;;5052388;28;20433;-73
2022/12/21 00:56:02;;;;;;;1.10;1.10;;;5.30;99.90;;;;;;5037889;28;20437;-73
2022/12/21 00:58:31;;;;;;;1.58;1.15;;;5.40;99.90;;;;;;5044195;28;20429;-73
2022/12/21 01:00:59;;;;;;;2.05;1.10;;;5.40;99.90;;;;;;5046068;28;20430;-73
2022/12/21 01:03:27;;;;;;;5.03;1.73;;;5.50;99.90;;;;;;5040506;28;20484;-73
2022/12/21 01:05:54;;;;;;;2.83;1.77;;;5.50;99.90;;;;;;5055293;28;20931;-73
2022/12/21 01:08:25;;;;;;;1.92;1.83;;;5.60;99.90;;;;;;5041192;28;20437;-73
2022/12/21 01:10:59;;;;;;;1.55;1.45;;;5.60;99.90;;;;;;5046392;28;20443;-73
2022/12/21 01:13:27;;;;;;;1.40;1.30;;;5.60;99.90;;;;;;5046880;28;20480;-73
2022/12/21 01:15:54;;;;;;;1.85;1.48;;;5.60;99.90;;;;;;5042568;28;20988;-73
2022/12/21 01:18:22;;;;;;;2.13;1.33;;;5.60;99.90;;;;;;5041032;28;20437;-72
2022/12/21 01:20:51;;;;;;;2.10;1.80;;;5.70;99.90;;;;;;5057662;28;20435;-73
2022/12/21 01:23:19;;;;;;;1.10;1.10;;;5.70;99.90;;;;;;5042432;28;20527;-73
2022/12/21 01:25:46;;;;;;;1.80;1.35;;;5.60;99.90;;;;;;5044184;28;20436;-73
2022/12/21 01:28:14;;;;;;;1.42;1.33;;;5.70;99.90;;;;;;5058974;28;20427;-73
2022/12/21 01:30:42;;;;;;;1.83;1.23;;;5.60;99.90;;;;;;5026387;28;20428;-73
2022/12/21 01:33:18;;;;;;;1.23;1.23;;;5.60;99.90;;;;;;5035708;28;20450;-73
2022/12/21 01:35:46;;;;;;;1.45;1.35;;;5.60;99.90;;;;;;5042620;28;20950;-73
2022/12/21 01:38:15;;;;;;;1.20;1.20;;;5.60;99.90;;;;;;5047830;28;20428;-73
2022/12/21 01:40:42;;;;;;;1.63;1.38;;;5.70;99.90;;;;;;5045110;28;20425;-74
2022/12/21 01:43:45;;;;;;;1.25;1.20;;;5.70;99.90;;;;;;5044335;28;20496;-72
2022/12/21 01:46:38;;;;;;;2.15;1.60;;;5.70;99.90;;;;;;5015063;28;20783;-72
2022/12/21 01:49:22;;;;;;;3.90;1.10;;;5.70;99.90;;;;;;5041255;28;20436;-73
2022/12/21 01:52:16;;;;;;;1.30;1.27;;;5.70;99.90;;;;;;5025973;28;20451;-72
2022/12/21 01:54:59;;;;;;;1.45;1.35;;;5.80;99.90;;;;;;5035392;28;20441;-72
2022/12/21 01:57:29;;;;;;;1.75;1.15;;;5.80;99.90;;;;;;5051729;28;20431;-73
2022/12/21 01:59:58;;;;;;;1.33;1.30;;;5.80;99.90;;;;;;5052474;28;20427;-73
2022/12/21 02:02:33;;;;;;;1.88;1.60;;;5.80;99.90;;;;;;5039656;28;20450;-73
2022/12/21 02:05:13;;;;;;;1.43;1.33;;;5.80;99.90;;;;;;5042327;28;21226;-73
2022/12/21 02:07:41;;;;;;;2.22;1.20;;;5.90;99.90;;;;;;5038954;28;20429;-73
2022/12/21 02:10:09;;;;;;;3.40;2.20;;;5.80;99.90;;;;;;5037330;28;20474;-73
2022/12/21 02:12:37;;;;;;;2.72;1.23;;;5.90;99.90;;;;;;5049938;28;20467;-73
2022/12/21 02:15:04;;;;;;;1.35;1.35;;;5.90;99.90;;;;;;5044056;28;20521;-73
2022/12/21 02:17:58;;;;;;;2.00;1.15;;;6.00;99.90;;;;;;5042309;28;20434;-73
2022/12/21 02:20:52;;;;;;;1.05;0.95;;;6.10;99.90;;;;;;5041469;28;20433;-74
2022/12/21 02:23:41;;;;;;;1.17;1.08;;;6.10;99.90;;;;;;5047931;28;20425;-74
2022/12/21 02:26:47;;;;;;;1.70;1.50;;;6.20;99.90;;;;;;5041951;28;20433;-74
2022/12/21 02:29:52;;;;;;;1.40;1.40;;;6.20;99.90;;;;;;5046051;28;20443;-76
2022/12/21 02:32:36;;;;;;;1.17;1.17;;;6.20;99.90;;;;;;5048936;28;20477;-75
2022/12/21 02:35:02;;;;;;;1.80;1.70;;;6.30;99.90;;;;;;5048618;28;20521;-74
2022/12/21 02:37:51;;;;;;;1.73;1.10;;;6.20;99.90;;;;;;5042975;28;20828;-76
2022/12/21 02:41:00;;;;;;;1.45;1.35;;;6.20;99.90;;;;;;5029457;28;20437;-77
2022/12/21 02:46:37;;;;;;;1.50;1.40;;;6.20;99.90;;;;;;5053161;28;20524;-76
2022/12/21 02:49:09;;;;;;;1.00;0.85;;;6.20;99.90;;;;;;5049426;28;20783;-76
2022/12/21 02:51:49;;;;;;;2.45;1.38;;;6.20;99.90;;;;;;5043316;28;20464;-76
2022/12/21 02:54:17;;;;;;;1.35;1.35;;;6.20;99.90;;;;;;5059239;28;20427;-76
2022/12/21 02:56:43;;;;;;;1.63;1.13;;;6.30;99.90;;;;;;5049507;28;20425;-75
2022/12/21 02:59:13;;;;;;;2.03;0.93;;;6.30;99.90;;;;;;5063834;28;20435;-75
2022/12/21 03:01:49;;;;;;;1.40;1.30;;;6.30;99.90;;;;;;5051835;28;20441;-77
2022/12/21 03:04:48;;;;;;;1.20;1.20;;;6.40;99.90;;;;;;5046242;28;20435;-74
2022/12/21 03:07:29;;;;;;;2.67;1.65;;;6.40;99.90;;;;;;5023450;28;20438;-74
2022/12/21 03:10:11;;;;;;;1.50;1.48;;;6.50;99.90;;;;;;5053461;28;20433;-74
2022/12/21 03:13:11;;;;;;;1.38;1.15;;;6.50;99.90;;;;;;5032603;28;20435;-73
2022/12/21 03:15:56;;;;;;;1.07;1.07;;;6.50;99.90;;;;;;5029663;28;20424;-73
2022/12/21 03:18:56;;;;;;;2.15;1.40;;;6.50;99.90;;;;;;5039821;28;20442;-72
2022/12/21 03:21:31;;;;;;;1.60;1.50;;;6.50;99.90;;;;;;5046456;28;20467;-72
2022/12/21 03:24:09;;;;;;;2.15;1.40;;;6.50;99.90;;;;;;5049099;28;20429;-73
2022/12/21 03:27:03;;;;;;;4.97;1.52;;;6.60;99.90;;;;;;5036611;28;20848;-73
2022/12/21 03:29:33;;;;;;;1.67;1.58;;;6.60;99.90;;;;;;5051519;28;20428;-73
2022/12/21 03:32:08;;;;;;;1.92;1.33;;;6.60;99.90;;;;;;5057632;28;20452;-73
2022/12/21 03:34:45;;;;;;;0.80;0.80;;;6.60;99.90;;;;;;5065670;28;20973;-73
2022/12/21 03:37:17;;;;;;;1.45;1.30;;;6.70;99.90;;;;;;5046894;28;20438;-73
2022/12/21 03:40:13;;;;;;;1.80;1.50;;;6.70;99.90;;;;;;5064975;28;20913;-73
2022/12/21 03:42:46;;;;;;;1.00;1.00;;;6.70;99.90;;;;;;5047466;28;20439;-74
2022/12/21 03:45:22;;;;;;;2.57;1.47;;;6.70;99.90;;;;;;5052811;28;20508;-74
2022/12/21 03:47:56;;;;;;;1.50;1.40;;;6.70;99.90;;;;;;5048561;28;20432;-74
2022/12/21 03:50:28;;;;;;;1.57;1.40;;;6.70;99.90;;;;;;5041775;28;20429;-73
2022/12/21 03:53:08;;;;;;;1.60;1.20;;;6.70;99.90;;;;;;5045016;28;20430;-73
2022/12/21 03:55:38;;;;;;;1.30;1.25;;;6.70;99.90;;;;;;5044456;28;20434;-73
2022/12/21 03:58:06;;;;;;;1.88;1.48;;;6.70;99.90;;;;;;5032074;28;20469;-73
2022/12/21 04:00:50;;;;;;;1.50;1.40;;;6.60;99.90;;;;;;5046953;28;20435;-73
2022/12/21 04:03:32;;;;;;;1.27;1.27;;;6.70;99.90;;;;;;5048396;28;20461;-73
2022/12/21 04:06:15;;;;;;;1.95;1.30;;;6.70;99.90;;;;;;5047270;28;20509;-73
2022/12/21 04:08:42;;;;;;;0.90;0.80;;;6.70;99.90;;;;;;5048447;28;20447;-73
2022/12/21 04:12:36;;;;;;;1.27;1.27;;;6.70;99.90;;;;;;5041019;28;20431;-74
2022/12/21 04:14:00;;;;;;;2.23;1.17;;;6.70;99.90;;;;;;5036719;28;20777;-74
2022/12/21 04:16:27;;;;;;;1.00;1.00;;;6.70;99.90;;;;;;5036400;28;20994;-74
2022/12/21 04:21:41;;;;;;;1.60;1.50;;;6.80;99.90;;;;;;5037578;28;20479;-74
2022/12/21 04:29:39;;;;;;;1.40;1.30;;;6.90;99.90;;;;;;5041992;28;20429;-74
2022/12/21 04:32:06;;;;;;;1.13;1.13;;;6.90;99.90;;;;;;5043036;28;20527;-74
2022/12/21 04:34:33;;;;;;;1.30;1.27;;;6.90;99.90;;;;;;5043208;28;20434;-74
2022/12/21 04:39:45;;;;;;;1.13;1.02;;;6.90;99.90;;;;;;5040605;28;20910;-75
2022/12/21 04:42:12;;;;;;;1.42;1.33;;;6.90;99.90;;;;;;5041418;28;20435;-76
2022/12/21 04:44:39;;;;;;;1.70;1.23;;;6.90;99.90;;;;;;5040418;28;20522;-76
2022/12/21 04:47:05;;;;;;;1.70;1.05;;;6.90;99.90;;;;;;5025352;28;20435;-77
2022/12/21 04:49:32;;;;;;;0.82;0.82;;;6.90;99.90;;;;;;5046095;28;20435;-76
2022/12/21 04:52:04;;;;;;;2.08;1.10;;;6.90;99.90;;;;;;5046255;28;20429;-76
2022/12/21 04:54:31;;;;;;;2.13;1.40;;;6.90;99.90;;;;;;5052345;28;20432;-76
2022/12/21 04:57:01;;;;;;;1.13;1.13;;;6.90;99.90;;;;;;5043129;28;20458;-76
2022/12/21 04:59:28;;;;;;;1.63;1.40;;;6.90;99.90;;;;;;5034854;28;20440;-76
2022/12/21 05:01:54;;;;;;;1.10;1.10;;;7.00;99.90;;;;;;5037429;28;20874;-76
2022/12/21 05:04:21;;;;;;;0.93;0.93;;;7.00;99.90;;;;;;5047061;28;20429;-76
2022/12/21 05:06:48;;;;;;;1.15;1.15;;;7.00;99.90;;;;;;5049273;28;20465;-76
2022/12/21 05:09:15;;;;;;;1.13;1.00;;;7.00;99.90;;;;;;5048235;28;20501;-76
2022/12/21 05:11:42;;;;;;;0.70;0.70;;;7.00;99.90;;;;;;5046694;28;20958;-76
2022/12/21 05:14:11;;;;;;;1.00;1.00;;;7.00;99.90;;;;;;5045860;28;20530;-76
2022/12/21 05:16:40;;;;;;;1.30;1.20;;;7.00;99.90;;;;;;5042452;28;20435;-76
2022/12/21 05:19:07;;;;;;;0.75;0.75;;;7.00;99.90;;;;;;5042459;28;20987;-76
2022/12/21 05:21:34;;;;;;;1.88;1.00;;;7.00;99.90;;;;;;5043127;28;20431;-75
2022/12/21 05:24:00;;;;;;;1.20;1.10;;;7.00;99.90;;;;;;5038679;28;20431;-75
2022/12/21 05:26:27;;;;;;;1.25;1.15;;;7.00;99.90;;;;;;5043464;28;20481;-74
2022/12/21 05:28:54;;;;;;;0.82;0.82;;;7.10;99.90;;;;;;5026387;28;21210;-74
2022/12/21 05:31:21;;;;;;;1.25;1.02;;;7.10;99.90;;;;;;5061196;28;20437;-74
2022/12/21 05:33:48;;;;;;;1.00;1.00;;;7.10;99.90;;;;;;5043359;28;20437;-74
2022/12/21 05:36:16;;;;;;;0.70;0.70;;;7.10;99.90;;;;;;5043894;28;20783;-74
2022/12/21 05:38:44;;;;;;;1.02;0.93;;;7.10;99.90;;;;;;5040703;28;20433;-74
2022/12/21 05:41:12;;;;;;;1.15;1.02;;;7.00;99.90;;;;;;5047458;28;20441;-74
2022/12/21 05:43:39;;;;;;;0.80;0.80;;;7.10;99.90;;;;;;5040875;28;20435;-74
2022/12/21 05:46:09;;;;;;;0.88;0.88;;;7.10;99.90;;;;;;5040879;28;20432;-74
2022/12/21 05:48:39;;;;;;;0.80;0.80;;;7.00;99.90;;;;;;5038645;28;20457;-74
2022/12/21 05:51:11;;;;;;;1.00;0.93;;;7.00;99.90;;;;;;5050367;28;20748;-74
2022/12/21 05:53:45;;;;;;;0.80;0.80;;;7.00;99.90;;;;;;5047342;28;20433;-74
2022/12/21 05:56:12;;;;;;;1.00;1.00;;;6.90;99.90;;;;;;5043665;28;20440;-74
2022/12/21 05:58:39;;;;;;;0.95;0.95;;;7.00;99.90;;;;;;5032460;28;21008;-74
2022/12/21 06:01:08;;;;;;;0.80;0.80;;;7.00;99.90;;;;;;5045686;28;20442;-75
2022/12/21 06:03:35;;;;;;;0.80;0.80;;;7.00;99.90;;;;;;5053733;28;20480;-75
2022/12/21 06:06:13;;;;;;;1.00;1.00;;;7.10;99.90;;;;;;5053183;28;20510;-75
2022/12/21 06:08:40;;;;;;;1.30;1.15;;;7.10;99.90;;;;;;5050327;28;20909;-75
2022/12/21 06:11:20;;;;;;;0.52;0.52;;;7.10;99.90;;;;;;5048070;28;20429;-75
2022/12/21 06:13:48;;;;;;;1.67;1.45;;;7.10;99.90;;;;;;5058277;28;20429;-75
2022/12/21 06:16:17;;;;;;;0.93;0.93;;;7.10;99.90;;;;;;5049981;28;20506;-75
2022/12/21 06:18:44;;;;;;;1.35;1.25;;;7.10;99.90;;;;;;5047887;28;20431;-75
2022/12/21 06:21:16;;;;;;;0.70;0.68;;;7.00;99.90;;;;;;5053826;28;20933;-76
2022/12/21 06:23:47;;;;;;;1.53;1.03;;;7.00;99.90;;;;;;5040897;28;20427;-76
2022/12/21 06:26:17;;;;;;;1.20;1.08;;;7.10;99.90;;;;;;5050469;28;20425;-76
2022/12/21 06:28:52;;;;;;;0.73;0.73;;;7.10;99.90;;;;;;5059045;28;20435;-76
2022/12/21 06:31:20;;;;;;;0.90;0.90;;;7.10;99.90;;;;;;5049593;28;20428;-76
2022/12/21 06:33:47;;;;;;;0.82;0.82;;;7.10;99.90;;;;;;5028401;28;20474;-76
2022/12/21 06:36:14;;;;;;;2.30;0.80;;;7.10;99.90;;;;;;5055561;28;20762;-75
2022/12/21 06:38:41;;;;;;;0.63;0.63;;;7.10;99.90;;;;;;5051852;28;20790;-75
2022/12/21 06:41:11;;;;;;;1.15;1.15;;;7.10;99.90;;;;;;5065307;28;20428;-76
2022/12/21 06:43:41;;;;;;;1.42;1.08;;;7.10;99.90;;;;;;5047471;28;20423;-75
2022/12/21 06:46:11;;;;;;;0.65;0.65;;;7.10;99.90;;;;;;5036555;28;20506;-75
2022/12/21 06:48:39;;;;;;;0.73;0.73;;;7.10;99.90;;;;;;5040733;28;20516;-75
2022/12/21 06:51:09;;;;;;;1.00;0.93;;;7.10;99.90;;;;;;5047454;28;20462;-75
2022/12/21 06:53:38;;;;;;;1.70;1.37;;;7.10;99.90;;;;;;5044106;28;20425;-75
2022/12/21 06:56:07;;;;;;;0.98;0.98;;;7.10;99.90;;;;;;5047031;28;20472;-75
2022/12/21 06:58:42;;;;;;;0.30;0.30;;;7.10;99.90;;;;;;5044819;28;20526;-75
2022/12/21 07:01:11;;;;;;;1.50;0.95;;;7.10;99.90;;;;;;5046971;28;20436;-75
2022/12/21 07:03:40;;;;;;;0.95;0.95;;;7.20;99.90;;;;;;5052726;28;20508;-75
2022/12/21 07:06:13;;;;;;;0.83;0.83;;;7.20;99.90;;;;;;5046241;28;21074;-75
2022/12/21 07:08:40;;;;;;;5.20;1.25;;;7.20;99.90;;;;;;5040225;28;20430;-75
2022/12/21 07:11:10;;;;;;;1.33;0.90;;;7.20;99.90;;;;;;5028945;28;20462;-75
2022/12/21 07:13:42;;;;;;;0.98;0.98;;;7.10;99.90;;;;;;5057833;28;20436;-75
2022/12/21 07:16:10;;;;;;;1.10;0.95;;;7.10;99.90;;;;;;5042879;28;20438;-75
2022/12/21 07:18:38;;;;;;;1.80;1.30;;;7.10;99.90;;;;;;5043175;28;20466;-75
2022/12/21 07:21:07;;;;;;;0.70;0.70;;;7.20;99.90;;;;;;5030988;28;20437;-79
2022/12/21 07:23:38;;;;;;;1.20;0.80;;;7.20;99.90;;;;;;5050555;28;20973;-74
2022/12/21 07:26:16;;;;;;;0.70;0.70;;;7.20;99.90;;;;;;5026128;28;20779;-74
2022/12/21 07:28:43;;;;;;;0.93;0.93;;;7.20;99.90;;;;;;5047519;28;20932;-74
2022/12/21 07:31:13;;;;;;;1.10;0.63;;;7.20;99.90;;;;;;5051218;28;20468;-75
2022/12/21 07:33:40;;;;;;;1.85;0.95;;;7.20;99.90;;;;;;5044577;28;20429;-75
2022/12/21 07:36:08;;;;;;;0.93;0.93;;;7.20;99.90;;;;;;5045864;28;20430;-75
2022/12/21 07:38:37;;;;;;;0.98;0.98;;;7.20;99.90;;;;;;5031800;28;20457;-75
2022/12/21 07:41:07;;;;;;;1.93;1.00;;;7.20;99.90;;;;;;5046456;28;20433;-75
2022/12/21 07:43:35;;;;;;;3.10;0.85;;;7.20;99.90;;;;;;5044870;28;20513;-75
2022/12/21 07:46:02;;;;;;;0.93;0.88;;;7.20;99.90;;;;;;5066881;28;20433;-75
2022/12/21 07:48:29;;;;;;;1.23;1.20;;;7.30;99.90;;;;;;5040072;28;20442;-75
2022/12/21 07:50:57;;;;;;;1.20;1.10;;;7.30;99.90;;;;;;5044111;28;20475;-74
2022/12/21 07:53:25;;;;;;;1.05;1.05;;;7.30;99.90;;;;;;5052815;28;20844;-75
2022/12/21 07:56:04;;;;;;;1.05;1.02;;;7.30;99.90;;;;;;5052859;28;20429;-75
2022/12/21 07:58:32;;;;;;;0.80;0.80;;;7.40;99.90;;;;;;5054929;28;20528;-75
2022/12/21 08:01:04;;;;;;;0.80;0.80;;;7.40;99.90;;;;;;5042645;28;20489;-75
2022/12/21 08:03:37;;;;;;;1.15;1.05;;;7.30;99.90;;;;;;5046210;28;20436;-76
2022/12/21 08:06:06;;;;;;;4.47;0.90;;;7.30;99.90;;;;;;5030909;28;20427;-76
2022/12/21 08:08:34;;;;;;;1.30;1.20;;;7.30;99.90;;;;;;5052774;28;20429;-76
2022/12/21 08:11:01;;;;;;;1.20;1.13;;;7.30;99.90;;;;;;5052197;28;20437;-76
2022/12/21 08:13:29;;;;;;;0.70;0.60;;;7.40;99.90;;;;;;5045555;28;20433;-77
2022/12/21 08:16:05;;;;;;;1.60;1.23;;;7.40;99.90;;;;;;5050034;28;20448;-78
2022/12/21 08:18:32;;;;;;;1.88;1.73;;;7.40;99.90;;;;;;5041197;28;21144;-77
2022/12/21 08:21:00;;;;;;;1.20;0.93;;;7.40;99.90;;;;;;5050114;28;20860;-77
2022/12/21 08:23:26;;;;;;;1.20;1.20;;;7.40;99.90;;;;;;5060147;28;20433;-77
2022/12/21 08:25:53;;;;;;;1.13;0.95;;;7.40;99.90;;;;;;5046075;28;20427;-77
2022/12/21 08:28:20;;;;;;;1.35;0.88;;;7.40;99.90;;;;;;5048711;28;20421;-78
2022/12/21 08:30:47;;;;;;;1.02;0.98;;;7.50;99.90;;;;;;5049606;28;20511;-77
2022/12/21 08:33:13;;;;;;;1.23;0.82;;;7.40;99.90;;;;;;5056904;28;20761;-78
2022/12/21 08:35:43;;;;;;;0.60;0.60;;;7.50;99.90;;;;;;5038819;28;20435;-77
2022/12/21 08:38:10;;;;;;;0.80;0.70;;;7.40;99.90;;;;;;5035072;28;20448;-77
2022/12/21 08:41:01;;;;;;;1.23;1.00;;;7.50;99.90;;;;;;5042367;28;21296;-78
2022/12/21 08:43:28;;;;;;;1.33;1.23;;;7.50;99.90;;;;;;5042736;28;20456;-77
2022/12/21 08:45:55;;;;;;;0.68;0.68;;;7.50;99.90;;;;;;5050746;28;20496;-77
2022/12/21 08:48:22;;;;;;;1.35;1.17;;;7.50;99.90;;;;;;5040237;28;20472;-78
2022/12/21 08:50:55;;;;;;;2.35;0.88;;;7.50;99.90;;;;;;5054515;28;20511;-77
2022/12/21 08:53:22;;;;;;;0.95;0.95;;;7.60;99.90;;;;;;5049076;28;20438;-77
2022/12/21 08:56:09;;;;;;;0.73;0.73;;;7.60;99.90;;;;;;5041728;28;21148;-77
2022/12/21 08:58:36;;;;;;;0.80;0.80;;;7.70;99.90;;;;;;5037661;28;21112;-78
2022/12/21 09:01:18;;;;;;;1.48;1.38;;;7.80;99.90;;;;;;5036192;28;20482;-77
2022/12/21 09:03:46;;;;;;;1.17;1.17;;;7.80;99.90;;;;;;5020492;28;20431;-77
2022/12/21 09:06:25;;;;;;;1.33;1.00;;;7.90;99.90;;;;;;5031108;28;20417;-77
2022/12/21 09:09:00;;;;;;;1.25;1.20;;;7.90;99.90;;;;;;5042777;28;20425;-77
2022/12/21 09:11:27;;;;;;;1.85;0.93;;;7.90;99.90;;;;;;5023500;28;20430;-77
2022/12/21 09:14:02;;;;;;;1.53;1.00;;;7.90;99.90;;;;;;5042991;28;20534;-77
2022/12/21 09:16:28;;;;;;;1.33;1.15;;;7.90;99.90;;;;;;5049500;28;20440;-77
2022/12/21 09:18:55;;;;;;;0.50;0.50;;;7.80;99.90;;;;;;5046288;28;21187;-77
2022/12/21 09:21:23;;;;;;;0.73;0.73;;;7.80;99.90;;;;;;5043590;28;20804;-77
2022/12/21 09:23:51;;;;;;;0.60;0.60;;;7.80;99.90;;;;;;5053986;28;20839;-77
2022/12/21 09:26:18;;;;;;;0.68;0.68;;;7.80;99.90;;;;;;5046375;28;20423;-77
2022/12/21 09:28:45;;;;;;;0.65;0.65;;;7.80;99.90;;;;;;5034781;28;20523;-77
2022/12/21 09:31:15;;;;;;;0.85;0.40;;;7.80;99.90;;;;;;5043534;28;20423;-77
2022/12/21 09:33:54;;;;;;;2.40;0.75;;;7.80;99.90;;;;;;5045770;28;20513;-78
2022/12/21 09:36:25;;;;;;;1.30;0.50;;;7.80;99.90;;;;;;5046371;28;20421;-78
2022/12/21 09:38:54;;;;;;;0.65;0.65;;;7.90;99.90;;;;;;5049376;28;20472;-78
2022/12/21 09:41:58;;;;;;;0.75;0.70;;;7.90;99.90;;;;;;5049727;28;20429;-78
2022/12/21 09:44:50;;;;;;;0.60;0.60;;;8.10;99.90;;;;;;5019639;28;20433;-78
2022/12/21 09:47:24;;;;;;;0.70;0.70;;;8.30;99.90;;;;;;5045508;28;20471;-77
2022/12/21 09:50:02;;;;;;;1.30;0.93;;;8.50;99.90;;;;;;5050657;28;20423;-77
2022/12/21 09:52:43;;;;;;;0.60;0.60;;;8.60;99.90;;;;;;5033179;28;20433;-77
2022/12/21 09:55:19;;;;;;;0.70;0.60;;;9.10;99.90;;;;;;5039995;28;20509;-78
2022/12/21 09:58:01;;;;;;;0.95;0.75;;;9.20;99.90;;;;;;5042376;28;20802;-78
2022/12/21 10:00:33;;;;;;;0.60;0.60;;;9.20;99.90;;;;;;5033650;28;20433;-77
2022/12/21 10:03:25;;;;;;;0.50;0.50;;;9.30;99.90;;;;;;5047777;28;20433;-77
2022/12/21 10:06:06;;;;;;;0.80;0.73;;;9.30;99.90;;;;;;5041002;28;20430;-77
2022/12/21 10:08:42;;;;;;;1.23;0.55;;;9.40;99.90;;;;;;5029818;28;20433;-77
2022/12/21 10:11:36;;;;;;;0.90;0.90;;;9.20;99.90;;;;;;5057503;28;20917;-76
2022/12/21 10:14:35;;;;;;;0.57;0.57;;;9.10;99.90;;;;;;5053111;28;20990;-77
2022/12/21 10:17:23;;;;;;;0.50;0.50;;;9.30;99.90;;;;;;5017671;28;20437;-76
2022/12/21 10:20:35;;;;;;;1.15;0.60;;;9.30;99.90;;;;;;5045374;28;20439;-77
2022/12/21 10:23:21;;;;;;;0.63;0.63;;;9.20;99.90;;;;;;5049253;28;20882;-76
2022/12/21 10:25:57;;;;;;;0.40;0.40;;;9.00;99.90;;;;;;5031396;28;20885;-77
2022/12/21 10:28:47;;;;;;;0.70;0.70;;;9.00;99.90;;;;;;5054176;28;20513;-77
2022/12/21 10:31:34;;;;;;;0.85;0.85;;;9.00;99.90;;;;;;5032000;28;20433;-76
2022/12/21 10:34:05;;;;;;;0.70;0.70;;;9.80;99.90;;;;;;5041528;28;20979;-77
2022/12/21 10:36:35;;;;;;;0.70;0.60;;;10.50;99.90;;;;;;5042452;28;20433;-77
2022/12/21 10:39:10;;;;;;;0.43;0.43;;;11.60;99.90;;;;;;5044721;28;20441;-77
2022/12/21 10:41:55;;;;;;;0.70;0.65;;;12.20;99.90;;;;;;5037735;28;20429;-77
2022/12/21 10:44:21;;;;;;;0.63;0.63;;;12.50;99.90;;;;;;5055284;28;20432;-77
2022/12/21 10:46:51;;;;;;;0.60;0.50;;;12.20;99.90;;;;;;5056174;28;20494;-77
2022/12/21 10:49:31;;;;;;;0.40;0.40;;;11.90;99.90;;;;;;5049880;28;20438;-76
2022/12/21 10:52:32;;;;;;;1.00;0.35;;;11.60;99.90;;;;;;5045486;28;20481;-76
2022/12/21 10:55:00;;;;;;;1.00;0.77;;;11.20;99.90;;;;;;5036992;28;20830;-76
2022/12/21 10:57:29;;;;;;;1.50;0.63;;;11.00;99.90;;;;;;5037963;28;20504;-76
2022/12/21 11:00:21;;;;;;;0.80;0.80;;;10.80;99.90;;;;;;5061738;28;20864;-77
2022/12/21 11:02:49;;;;;;;0.75;0.75;;;10.60;99.90;;;;;;5059462;28;20434;-76
2022/12/21 11:05:36;;;;;;;0.45;0.45;;;10.50;99.90;;;;;;5048120;28;20427;-77
2022/12/21 11:08:14;;;;;;;2.10;0.60;;;10.40;99.90;;;;;;5050967;28;20519;-77
2022/12/21 11:10:49;;;;;;;0.90;0.30;;;10.40;99.90;;;;;;5042111;28;20943;-76
2022/12/21 11:13:26;;;;;;;2.00;0.60;;;10.40;99.90;;;;;;5027705;28;20437;-76
2022/12/21 11:15:59;;;;;;;0.82;0.63;;;10.40;99.90;;;;;;5051633;28;20823;-76
2022/12/21 11:18:41;;;;;;;0.40;0.40;;;10.30;99.90;;;;;;5017450;28;20929;-76
2022/12/21 11:21:38;;;;;;;0.50;0.50;;;10.30;99.90;;;;;;5037441;28;20457;-77
2022/12/21 11:24:12;;;;;;;0.52;0.52;;;10.40;99.90;;;;;;5042531;28;20512;-76
2022/12/21 11:27:11;;;;;;;0.50;0.50;;;10.40;99.90;;;;;;5045825;28;20427;-76
2022/12/21 11:29:53;;;;;;;6.70;1.00;;;10.60;99.90;;;;;;5045701;28;20479;-76
2022/12/21 11:32:21;;;;;;;1.10;0.63;;;10.60;99.90;;;;;;5050227;28;20463;-76
2022/12/21 11:34:54;;;;;;;0.47;0.47;;;10.60;99.90;;;;;;5053414;28;20429;-76
2022/12/21 11:37:34;;;;;;;0.60;0.40;;;10.70;99.90;;;;;;5042831;28;20437;-76
2022/12/21 11:40:10;;;;;;;0.50;0.50;;;10.80;99.90;;;;;;5070188;28;20976;-76
2022/12/21 11:42:55;;;;;;;0.50;0.50;;;11.20;99.90;;;;;;5045861;28;20508;-76
2022/12/21 11:45:23;;;;;;;2.00;0.68;;;11.80;99.90;;;;;;5029119;28;20485;-77
2022/12/21 11:48:33;;;;;;;0.70;0.70;;;12.00;99.90;;;;;;5050939;28;20974;-77
2022/12/21 11:51:10;;;;;;;0.90;0.90;;;11.80;99.90;;;;;;5049034;28;20431;-76
2022/12/21 11:53:55;;;;;;;0.80;0.80;;;11.40;99.90;;;;;;5043631;28;20993;-76
2022/12/21 11:56:34;;;;;;;0.55;0.55;;;10.90;99.90;;;;;;5049919;28;20508;-76
2022/12/21 11:59:10;;;;;;;0.70;0.40;;;10.60;99.90;;;;;;5051306;28;20449;-76
2022/12/21 12:02:14;;;;;;;0.80;0.80;;;10.40;99.90;;;;;;5037346;28;20429;-76
2022/12/21 12:05:00;;;;;;;0.45;0.45;;;10.40;99.90;;;;;;4964502;28;20524;-76
2022/12/21 12:07:54;;;;;;;0.57;0.52;;;10.40;99.90;;;;;;4983834;28;20446;-77
2022/12/21 12:10:41;;;;;;;0.90;0.70;;;10.40;99.90;;;;;;4982971;28;20452;-75
2022/12/21 12:13:47;;;;;;;0.70;0.70;;;10.40;99.90;;;;;;4982885;28;20440;-75
2022/12/21 12:16:17;;;;;;;1.25;0.88;;;10.20;99.90;;;;;;4986141;28;20438;-75
2022/12/21 12:19:13;;;;;;;0.68;0.68;;;10.10;99.90;;;;;;4982418;28;20442;-75
2022/12/21 12:21:58;;;;;;;0.60;0.60;;;10.10;99.90;;;;;;4987128;28;20438;-75
2022/12/21 12:24:46;;;;;;;0.70;0.60;;;10.00;99.90;;;;;;4989197;28;20521;-77
2022/12/21 12:27:49;;;;;;;0.57;0.57;;;10.00;99.90;;;;;;4991510;28;20561;-77
2022/12/21 12:30:21;;;;;;;0.52;0.52;;;9.90;99.90;;;;;;4990270;28;20444;-76
2022/12/21 12:33:09;;;;;;;0.50;0.50;;;9.70;99.90;;;;;;4989019;28;20502;-76
2022/12/21 12:36:02;;;;;;;1.10;0.90;;;9.60;99.90;;;;;;4990340;28;20433;-76
2022/12/21 12:38:44;;;;;;;0.60;0.60;;;9.40;99.90;;;;;;5016859;28;20444;-79
2022/12/21 12:41:38;;;;;;;0.90;0.77;;;9.30;99.90;;;;;;5042853;28;20518;-77
2022/12/21 12:44:16;;;;;;;0.40;0.40;;;9.20;99.90;;;;;;5031415;28;20506;-76
2022/12/21 12:47:14;;;;;;;0.32;0.32;;;9.10;99.90;;;;;;5058916;28;20429;-77
2022/12/21 12:49:47;;;;;;;0.90;0.90;;;9.00;99.90;;;;;;5040329;28;20515;-77
2022/12/21 12:52:39;;;;;;;1.05;0.80;;;9.00;99.90;;;;;;5047053;28;20427;-77
2022/12/21 12:55:31;;;;;;;0.45;0.45;;;9.00;99.90;;;;;;5050397;28;20455;-76
2022/12/21 12:58:30;;;;;;;1.00;0.40;;;9.10;99.90;;;;;;5015409;28;20782;-77
2022/12/21 13:01:17;;;;;;;1.20;0.60;;;9.20;99.90;;;;;;4978015;28;20428;-77
2022/12/21 13:04:10;;;;;;;0.30;0.30;;;9.30;99.90;;;;;;4968543;28;20447;-77
2022/12/21 13:07:20;;;;;;;0.73;0.63;;;9.40;99.90;;;;;;4981198;28;20442;-77
2022/12/21 13:10:22;;;;;;;0.55;0.55;;;9.40;99.90;;;;;;4904435;29;20944;-77
2022/12/21 13:13:23;;;;;;;0.50;0.50;;;9.50;99.90;;;;;;4910006;29;20437;-77
2022/12/21 13:16:13;;;;;;;0.47;0.47;;;9.60;99.90;;;;;;4879056;29;20527;-77
2022/12/21 13:19:09;;;;;;;0.40;0.40;;;9.80;99.90;;;;;;4908476;29;20437;-77
2022/12/21 13:21:39;;;;;;;0.60;0.60;;;10.10;99.90;;;;;;4911102;29;20445;-77
2022/12/21 13:24:20;;;;;;;0.80;0.45;;;10.20;99.90;;;;;;4908359;29;20804;-77
2022/12/21 13:27:00;;;;;;;0.68;0.68;;;10.20;99.90;;;;;;4920055;29;20518;-77
2022/12/21 13:29:40;;;;;;;0.47;0.47;;;10.10;99.90;;;;;;4893860;29;20433;-77
2022/12/21 13:32:22;;;;;;;0.43;0.43;;;10.00;99.90;;;;;;4887689;29;20493;-77
2022/12/21 13:35:15;;;;;;;1.30;0.68;;;9.90;99.90;;;;;;4903438;29;21003;-77
2022/12/21 13:37:44;;;;;;;0.57;0.57;;;9.90;99.90;;;;;;4931859;28;20458;-77
2022/12/21 13:40:20;;;;;;;0.80;0.50;;;9.90;99.90;;;;;;4964438;28;20471;-77
2022/12/21 13:42:55;;;;;;;0.70;0.70;;;9.90;99.90;;;;;;4949655;29;20444;-77
2022/12/21 13:45:31;;;;;;;1.38;0.65;;;9.80;99.90;;;;;;4976196;28;20510;-77
2022/12/21 13:47:59;;;;;;;0.75;0.75;;;9.80;99.90;;;;;;5037749;28;20434;-76
2022/12/21 13:50:59;;;;;;;0.70;0.60;;;9.80;99.90;;;;;;5037515;28;20476;-76
2022/12/21 13:53:39;;;;;;;0.70;0.70;;;9.80;99.90;;;;;;5038537;28;21017;-76